sensor_id;sensor_type;location;lat;lon;timestamp;pressure;altitude;pressure_sealevel;temperature;humidity
70971;BME280;58632;51.718;19.446;2023-01-01T00:01:05;99495.75;;;11.19;100.00
70971;BME280;58632;51.718;19.446;2023-01-01T00:03:56;99492.86;;;11.24;100.00
70971;BME280;58632;51.718;19.446;2023-01-01T00:06:22;99493.34;;;11.28;100.00
70971;BME280;58632;51.718;19.446;2023-01-01T00:08:48;99487.84;;;11.30;100.00
70971;BME280;58632;51.718;19.446;2023-01-01T00:11:34;99490.21;;;11.31;100.00
70971;BME280;58632;51.718;19.446;2023-01-01T00:14:00;99486.95;;;11.29;100.00
70971;BME280;58632;51.718;19.446;2023-01-01T00:16:25;99480.08;;;11.29;100.00
70971;BME280;58632;51.718;19.446;2023-01-01T00:18:51;99478.77;;;11.32;100.00
70971;BME280;58632;51.718;19.446;2023-01-01T00:21:17;99482.21;;;11.34;100.00
70971;BME280;58632;51.718;19.446;2023-01-01T00:23:43;99488.20;;;11.35;100.00
70971;BME280;58632;51.718;19.446;2023-01-01T00:26:11;99486.38;;;11.36;100.00
70971;BME280;58632;51.718;19.446;2023-01-01T00:28:38;99484.88;;;11.38;100.00
70971;BME280;58632;51.718;19.446;2023-01-01T00:33:32;99486.27;;;11.47;100.00
70971;BME280;58632;51.718;19.446;2023-01-01T00:36:08;99487.52;;;11.51;100.00
70971;BME280;58632;51.718;19.446;2023-01-01T00:38:34;99490.41;;;11.53;100.00
70971;BME280;58632;51.718;19.446;2023-01-01T00:41:01;99485.59;;;11.54;100.00
70971;BME280;58632;51.718;19.446;2023-01-01T00:43:27;99487.98;;;11.55;100.00
70971;BME280;58632;51.718;19.446;2023-01-01T00:45:53;99490.31;;;11.58;100.00
70971;BME280;58632;51.718;19.446;2023-01-01T00:48:19;99488.23;;;11.62;100.00
70971;BME280;58632;51.718;19.446;2023-01-01T00:50:49;99497.13;;;11.63;100.00
70971;BME280;58632;51.718;19.446;2023-01-01T00:53:15;99495.20;;;11.62;100.00
70971;BME280;58632;51.718;19.446;2023-01-01T00:55:41;99496.34;;;11.61;100.00
70971;BME280;58632;51.718;19.446;2023-01-01T00:58:08;99499.73;;;11.57;100.00
70971;BME280;58632;51.718;19.446;2023-01-01T01:00:34;99504.75;;;11.55;100.00
70971;BME280;58632;51.718;19.446;2023-01-01T01:03:00;99512.28;;;11.53;100.00
70971;BME280;58632;51.718;19.446;2023-01-01T01:05:26;99518.77;;;11.48;100.00
70971;BME280;58632;51.718;19.446;2023-01-01T01:07:52;99518.51;;;11.43;100.00
70971;BME280;58632;51.718;19.446;2023-01-01T01:10:19;99520.22;;;11.39;100.00
70971;BME280;58632;51.718;19.446;2023-01-01T01:12:48;99519.90;;;11.37;100.00
70971;BME280;58632;51.718;19.446;2023-01-01T01:15:14;99520.77;;;11.37;100.00
70971;BME280;58632;51.718;19.446;2023-01-01T01:17:39;99521.16;;;11.37;100.00
70971;BME280;58632;51.718;19.446;2023-01-01T01:20:06;99516.59;;;11.36;100.00
70971;BME280;58632;51.718;19.446;2023-01-01T01:22:33;99515.84;;;11.35;100.00
70971;BME280;58632;51.718;19.446;2023-01-01T01:25:01;99513.70;;;11.35;100.00
70971;BME280;58632;51.718;19.446;2023-01-01T01:27:27;99520.29;;;11.34;100.00
70971;BME280;58632;51.718;19.446;2023-01-01T01:29:53;99524.05;;;11.35;100.00
70971;BME280;58632;51.718;19.446;2023-01-01T01:32:19;99528.20;;;11.32;100.00
70971;BME280;58632;51.718;19.446;2023-01-01T01:34:45;99534.44;;;11.30;100.00
70971;BME280;58632;51.718;19.446;2023-01-01T01:37:11;99538.69;;;11.27;100.00
70971;BME280;58632;51.718;19.446;2023-01-01T01:39:37;99534.45;;;11.26;100.00
70971;BME280;58632;51.718;19.446;2023-01-01T01:42:04;99531.86;;;11.24;100.00
70971;BME280;58632;51.718;19.446;2023-01-01T01:49:53;99526.09;;;11.15;100.00
70971;BME280;58632;51.718;19.446;2023-01-01T01:52:20;99521.05;;;11.16;100.00
70971;BME280;58632;51.718;19.446;2023-01-01T01:54:46;99518.44;;;11.17;100.00
70971;BME280;58632;51.718;19.446;2023-01-01T01:57:12;99515.52;;;11.14;100.00
70971;BME280;58632;51.718;19.446;2023-01-01T01:59:42;99515.06;;;11.11;100.00
70971;BME280;58632;51.718;19.446;2023-01-01T02:02:15;99513.56;;;11.08;100.00
70971;BME280;58632;51.718;19.446;2023-01-01T02:04:43;99516.11;;;11.12;100.00
70971;BME280;58632;51.718;19.446;2023-01-01T02:07:11;99515.10;;;11.15;100.00
70971;BME280;58632;51.718;19.446;2023-01-01T02:09:39;99514.98;;;11.17;100.00
70971;BME280;58632;51.718;19.446;2023-01-01T02:12:05;99510.72;;;11.18;100.00
70971;BME280;58632;51.718;19.446;2023-01-01T02:14:30;99513.70;;;11.20;100.00
70971;BME280;58632;51.718;19.446;2023-01-01T02:17:08;99514.55;;;11.24;100.00
70971;BME280;58632;51.718;19.446;2023-01-01T02:27:50;99513.14;;;11.28;100.00
70971;BME280;58632;51.718;19.446;2023-01-01T02:30:17;99513.63;;;11.32;100.00
70971;BME280;58632;51.718;19.446;2023-01-01T02:33:20;99512.67;;;11.34;100.00
70971;BME280;58632;51.718;19.446;2023-01-01T02:35:56;99512.55;;;11.33;100.00
70971;BME280;58632;51.718;19.446;2023-01-01T02:38:38;99512.35;;;11.30;100.00
70971;BME280;58632;51.718;19.446;2023-01-01T02:41:09;99515.35;;;11.29;100.00
70971;BME280;58632;51.718;19.446;2023-01-01T02:43:37;99515.66;;;11.31;100.00
70971;BME280;58632;51.718;19.446;2023-01-01T02:46:07;99524.27;;;11.32;100.00
70971;BME280;58632;51.718;19.446;2023-01-01T02:48:44;99518.09;;;11.32;100.00
70971;BME280;58632;51.718;19.446;2023-01-01T02:53:49;99508.89;;;11.36;100.00
70971;BME280;58632;51.718;19.446;2023-01-01T02:56:35;99513.11;;;11.37;100.00
70971;BME280;58632;51.718;19.446;2023-01-01T03:10:18;99514.75;;;11.65;100.00
70971;BME280;58632;51.718;19.446;2023-01-01T03:12:53;99516.75;;;11.70;100.00
70971;BME280;58632;51.718;19.446;2023-01-01T03:15:26;99526.59;;;11.78;100.00
70971;BME280;58632;51.718;19.446;2023-01-01T03:18:07;99523.28;;;11.83;100.00
70971;BME280;58632;51.718;19.446;2023-01-01T03:20:35;99523.42;;;11.87;100.00
70971;BME280;58632;51.718;19.446;2023-01-01T03:23:12;99534.87;;;11.90;100.00
70971;BME280;58632;51.718;19.446;2023-01-01T03:25:44;99531.36;;;11.92;100.00
70971;BME280;58632;51.718;19.446;2023-01-01T03:28:16;99537.65;;;11.93;100.00
70971;BME280;58632;51.718;19.446;2023-01-01T03:30:45;99536.45;;;11.94;100.00
70971;BME280;58632;51.718;19.446;2023-01-01T03:33:17;99538.21;;;11.92;100.00
70971;BME280;58632;51.718;19.446;2023-01-01T03:38:25;99539.05;;;11.86;100.00
70971;BME280;58632;51.718;19.446;2023-01-01T03:41:00;99539.35;;;11.84;100.00
70971;BME280;58632;51.718;19.446;2023-01-01T03:43:37;99540.60;;;11.81;100.00
70971;BME280;58632;51.718;19.446;2023-01-01T03:46:06;99543.98;;;11.82;100.00
70971;BME280;58632;51.718;19.446;2023-01-01T03:48:33;99535.98;;;11.81;100.00
70971;BME280;58632;51.718;19.446;2023-01-01T03:53:51;99539.33;;;11.79;100.00
70971;BME280;58632;51.718;19.446;2023-01-01T03:56:36;99539.36;;;11.78;100.00
70971;BME280;58632;51.718;19.446;2023-01-01T03:59:29;99544.19;;;11.77;100.00
70971;BME280;58632;51.718;19.446;2023-01-01T04:02:01;99548.25;;;11.76;100.00
70971;BME280;58632;51.718;19.446;2023-01-01T04:04:28;99550.27;;;11.76;100.00
70971;BME280;58632;51.718;19.446;2023-01-01T04:06:54;99551.71;;;11.72;100.00
70971;BME280;58632;51.718;19.446;2023-01-01T04:09:26;99559.64;;;11.71;100.00
70971;BME280;58632;51.718;19.446;2023-01-01T04:11:54;99561.80;;;11.67;100.00
70971;BME280;58632;51.718;19.446;2023-01-01T04:14:34;99565.75;;;11.62;100.00
70971;BME280;58632;51.718;19.446;2023-01-01T04:17:01;99564.11;;;11.58;100.00
70971;BME280;58632;51.718;19.446;2023-01-01T04:19:27;99566.25;;;11.57;100.00
70971;BME280;58632;51.718;19.446;2023-01-01T04:21:53;99573.77;;;11.55;100.00
70971;BME280;58632;51.718;19.446;2023-01-01T04:24:19;99572.15;;;11.53;100.00
70971;BME280;58632;51.718;19.446;2023-01-01T04:26:45;99569.80;;;11.51;100.00
70971;BME280;58632;51.718;19.446;2023-01-01T04:29:10;99569.49;;;11.50;100.00
70971;BME280;58632;51.718;19.446;2023-01-01T04:31:36;99571.02;;;11.48;100.00
70971;BME280;58632;51.718;19.446;2023-01-01T04:34:03;99567.23;;;11.52;100.00
70971;BME280;58632;51.718;19.446;2023-01-01T04:36:29;99569.13;;;11.52;100.00
70971;BME280;58632;51.718;19.446;2023-01-01T04:38:55;99569.01;;;11.51;100.00
70971;BME280;58632;51.718;19.446;2023-01-01T04:41:21;99570.36;;;11.52;100.00
70971;BME280;58632;51.718;19.446;2023-01-01T04:43:48;99578.95;;;11.53;100.00
70971;BME280;58632;51.718;19.446;2023-01-01T04:46:15;99577.34;;;11.54;100.00
70971;BME280;58632;51.718;19.446;2023-01-01T04:48:42;99578.52;;;11.56;100.00
70971;BME280;58632;51.718;19.446;2023-01-01T04:51:09;99577.46;;;11.57;100.00
70971;BME280;58632;51.718;19.446;2023-01-01T04:53:35;99576.37;;;11.57;100.00
70971;BME280;58632;51.718;19.446;2023-01-01T04:56:05;99579.63;;;11.56;100.00
70971;BME280;58632;51.718;19.446;2023-01-01T04:58:32;99579.08;;;11.54;100.00
70971;BME280;58632;51.718;19.446;2023-01-01T05:00:58;99582.64;;;11.53;100.00
70971;BME280;58632;51.718;19.446;2023-01-01T05:03:24;99589.48;;;11.52;100.00
70971;BME280;58632;51.718;19.446;2023-01-01T05:06:00;99590.02;;;11.54;100.00
70971;BME280;58632;51.718;19.446;2023-01-01T05:08:29;99590.35;;;11.56;100.00
70971;BME280;58632;51.718;19.446;2023-01-01T05:11:01;99593.84;;;11.55;100.00
70971;BME280;58632;51.718;19.446;2023-01-01T05:13:27;99593.42;;;11.56;100.00
70971;BME280;58632;51.718;19.446;2023-01-01T05:15:53;99597.15;;;11.58;100.00
70971;BME280;58632;51.718;19.446;2023-01-01T05:18:19;99596.34;;;11.57;100.00
70971;BME280;58632;51.718;19.446;2023-01-01T05:20:45;99599.83;;;11.54;100.00
70971;BME280;58632;51.718;19.446;2023-01-01T05:23:11;99606.11;;;11.48;100.00
70971;BME280;58632;51.718;19.446;2023-01-01T05:25:36;99609.25;;;11.42;100.00
70971;BME280;58632;51.718;19.446;2023-01-01T05:28:02;99610.89;;;11.38;100.00
70971;BME280;58632;51.718;19.446;2023-01-01T05:30:29;99615.75;;;11.36;99.99
70971;BME280;58632;51.718;19.446;2023-01-01T05:32:54;99616.52;;;11.34;100.00
70971;BME280;58632;51.718;19.446;2023-01-01T05:35:21;99615.09;;;11.31;100.00
70971;BME280;58632;51.718;19.446;2023-01-01T05:37:47;99622.97;;;11.27;100.00
70971;BME280;58632;51.718;19.446;2023-01-01T05:40:13;99627.33;;;11.22;100.00
70971;BME280;58632;51.718;19.446;2023-01-01T05:42:38;99628.58;;;11.16;100.00
70971;BME280;58632;51.718;19.446;2023-01-01T05:45:05;99626.48;;;11.15;100.00
70971;BME280;58632;51.718;19.446;2023-01-01T05:47:31;99623.64;;;11.16;100.00
70971;BME280;58632;51.718;19.446;2023-01-01T05:49:57;99631.02;;;11.15;100.00
70971;BME280;58632;51.718;19.446;2023-01-01T05:52:23;99637.07;;;11.13;100.00
70971;BME280;58632;51.718;19.446;2023-01-01T05:54:49;99632.71;;;11.12;100.00
70971;BME280;58632;51.718;19.446;2023-01-01T05:57:14;99638.23;;;11.11;100.00
70971;BME280;58632;51.718;19.446;2023-01-01T05:59:40;99641.92;;;11.11;100.00
70971;BME280;58632;51.718;19.446;2023-01-01T06:02:06;99645.36;;;11.11;100.00
70971;BME280;58632;51.718;19.446;2023-01-01T06:04:32;99645.77;;;11.12;100.00
70971;BME280;58632;51.718;19.446;2023-01-01T06:06:57;99645.20;;;11.11;99.96
70971;BME280;58632;51.718;19.446;2023-01-01T06:09:23;99645.23;;;11.12;100.00
70971;BME280;58632;51.718;19.446;2023-01-01T06:11:49;99642.27;;;11.10;100.00
70971;BME280;58632;51.718;19.446;2023-01-01T06:14:15;99650.17;;;11.10;99.90
70971;BME280;58632;51.718;19.446;2023-01-01T06:16:41;99648.05;;;11.08;99.95
70971;BME280;58632;51.718;19.446;2023-01-01T06:19:07;99652.27;;;11.09;99.84
70971;BME280;58632;51.718;19.446;2023-01-01T06:21:33;99653.39;;;11.12;99.64
70971;BME280;58632;51.718;19.446;2023-01-01T06:23:59;99656.81;;;11.10;99.62
70971;BME280;58632;51.718;19.446;2023-01-01T06:26:30;99658.52;;;11.08;99.38
70971;BME280;58632;51.718;19.446;2023-01-01T06:28:57;99655.83;;;11.07;98.96
70971;BME280;58632;51.718;19.446;2023-01-01T06:31:23;99658.86;;;11.06;99.08
70971;BME280;58632;51.718;19.446;2023-01-01T06:33:49;99653.27;;;11.03;98.89
70971;BME280;58632;51.718;19.446;2023-01-01T06:36:17;99653.69;;;11.02;98.72
70971;BME280;58632;51.718;19.446;2023-01-01T06:38:45;99660.71;;;11.05;98.49
70971;BME280;58632;51.718;19.446;2023-01-01T06:41:13;99660.50;;;11.08;97.98
70971;BME280;58632;51.718;19.446;2023-01-01T06:43:40;99663.01;;;11.10;97.73
70971;BME280;58632;51.718;19.446;2023-01-01T06:46:24;99671.51;;;11.13;97.20
70971;BME280;58632;51.718;19.446;2023-01-01T06:48:53;99674.77;;;11.18;97.01
70971;BME280;58632;51.718;19.446;2023-01-01T06:51:24;99678.48;;;11.21;96.82
70971;BME280;58632;51.718;19.446;2023-01-01T06:53:51;99678.81;;;11.23;96.64
70971;BME280;58632;51.718;19.446;2023-01-01T06:56:17;99690.53;;;11.22;96.33
70971;BME280;58632;51.718;19.446;2023-01-01T06:58:43;99693.04;;;11.22;96.32
70971;BME280;58632;51.718;19.446;2023-01-01T07:01:18;99692.98;;;11.24;96.24
70971;BME280;58632;51.718;19.446;2023-01-01T07:03:49;99697.02;;;11.26;96.06
70971;BME280;58632;51.718;19.446;2023-01-01T07:06:15;99697.57;;;11.26;96.05
70971;BME280;58632;51.718;19.446;2023-01-01T07:08:41;99695.66;;;11.29;96.22
70971;BME280;58632;51.718;19.446;2023-01-01T07:11:07;99696.29;;;11.31;95.90
70971;BME280;58632;51.718;19.446;2023-01-01T07:13:33;99694.95;;;11.33;95.82
70971;BME280;58632;51.718;19.446;2023-01-01T07:15:59;99699.20;;;11.37;95.81
70971;BME280;58632;51.718;19.446;2023-01-01T07:18:25;99706.20;;;11.39;95.42
70971;BME280;58632;51.718;19.446;2023-01-01T07:20:55;99706.77;;;11.46;95.21
70971;BME280;58632;51.718;19.446;2023-01-01T07:23:23;99712.40;;;11.50;94.99
70971;BME280;58632;51.718;19.446;2023-01-01T07:25:50;99711.18;;;11.47;95.32
70971;BME280;58632;51.718;19.446;2023-01-01T07:28:16;99721.00;;;11.45;95.18
70971;BME280;58632;51.718;19.446;2023-01-01T07:30:42;99723.27;;;11.43;95.05
70971;BME280;58632;51.718;19.446;2023-01-01T07:33:12;99727.64;;;11.40;95.04
70971;BME280;58632;51.718;19.446;2023-01-01T07:35:38;99730.67;;;11.40;95.08
70971;BME280;58632;51.718;19.446;2023-01-01T07:38:04;99735.15;;;11.41;94.94
70971;BME280;58632;51.718;19.446;2023-01-01T07:40:30;99742.86;;;11.41;94.91
70971;BME280;58632;51.718;19.446;2023-01-01T07:42:56;99744.46;;;11.42;94.84
70971;BME280;58632;51.718;19.446;2023-01-01T07:45:24;99745.98;;;11.43;94.79
70971;BME280;58632;51.718;19.446;2023-01-01T07:47:52;99750.90;;;11.44;94.75
70971;BME280;58632;51.718;19.446;2023-01-01T07:50:19;99759.91;;;11.51;94.49
70971;BME280;58632;51.718;19.446;2023-01-01T07:52:45;99767.08;;;11.59;94.31
70971;BME280;58632;51.718;19.446;2023-01-01T07:55:15;99770.06;;;11.63;94.31
70971;BME280;58632;51.718;19.446;2023-01-01T07:57:42;99775.09;;;11.71;94.19
70971;BME280;58632;51.718;19.446;2023-01-01T08:00:11;99771.89;;;11.79;94.05
70971;BME280;58632;51.718;19.446;2023-01-01T08:02:38;99774.16;;;11.85;93.84
70971;BME280;58632;51.718;19.446;2023-01-01T08:05:04;99770.16;;;11.90;93.75
70971;BME280;58632;51.718;19.446;2023-01-01T08:07:30;99774.65;;;11.94;93.76
70971;BME280;58632;51.718;19.446;2023-01-01T08:09:56;99774.59;;;12.03;92.87
70971;BME280;58632;51.718;19.446;2023-01-01T08:12:22;99774.38;;;12.09;93.08
70971;BME280;58632;51.718;19.446;2023-01-01T08:14:48;99776.07;;;12.12;92.95
70971;BME280;58632;51.718;19.446;2023-01-01T08:17:14;99777.16;;;12.17;92.91
70971;BME280;58632;51.718;19.446;2023-01-01T08:19:40;99775.03;;;12.22;92.58
70971;BME280;58632;51.718;19.446;2023-01-01T08:22:06;99779.06;;;12.27;92.58
70971;BME280;58632;51.718;19.446;2023-01-01T08:24:31;99774.77;;;12.34;92.00
70971;BME280;58632;51.718;19.446;2023-01-01T08:26:57;99773.84;;;12.40;91.57
70971;BME280;58632;51.718;19.446;2023-01-01T08:29:23;99771.16;;;12.47;91.41
70971;BME280;58632;51.718;19.446;2023-01-01T08:31:49;99770.48;;;12.54;91.20
70971;BME280;58632;51.718;19.446;2023-01-01T08:34:15;99777.02;;;12.60;91.06
70971;BME280;58632;51.718;19.446;2023-01-01T08:36:41;99776.04;;;12.65;90.81
70971;BME280;58632;51.718;19.446;2023-01-01T08:39:07;99777.49;;;12.69;90.53
70971;BME280;58632;51.718;19.446;2023-01-01T08:41:33;99782.86;;;12.72;90.41
70971;BME280;58632;51.718;19.446;2023-01-01T08:43:58;99785.61;;;12.76;90.10
70971;BME280;58632;51.718;19.446;2023-01-01T08:46:24;99782.73;;;12.85;89.56
70971;BME280;58632;51.718;19.446;2023-01-01T08:48:50;99787.86;;;12.93;88.49
70971;BME280;58632;51.718;19.446;2023-01-01T08:51:16;99792.24;;;13.01;88.16
70971;BME280;58632;51.718;19.446;2023-01-01T08:53:42;99800.39;;;13.11;88.11
70971;BME280;58632;51.718;19.446;2023-01-01T08:56:10;99805.42;;;13.21;87.68
70971;BME280;58632;51.718;19.446;2023-01-01T08:58:38;99802.94;;;13.30;87.13
70971;BME280;58632;51.718;19.446;2023-01-01T09:01:05;99805.91;;;13.41;86.43
70971;BME280;58632;51.718;19.446;2023-01-01T09:03:32;99802.85;;;13.50;86.22
70971;BME280;58632;51.718;19.446;2023-01-01T09:05:58;99803.23;;;13.57;85.46
70971;BME280;58632;51.718;19.446;2023-01-01T09:08:24;99797.80;;;13.59;85.27
70971;BME280;58632;51.718;19.446;2023-01-01T09:10:51;99798.90;;;13.64;85.13
70971;BME280;58632;51.718;19.446;2023-01-01T09:13:19;99800.16;;;13.71;84.61
70971;BME280;58632;51.718;19.446;2023-01-01T09:15:45;99799.63;;;13.81;84.36
70971;BME280;58632;51.718;19.446;2023-01-01T09:18:11;99801.39;;;13.91;83.68
70971;BME280;58632;51.718;19.446;2023-01-01T09:20:37;99799.02;;;14.01;83.47
70971;BME280;58632;51.718;19.446;2023-01-01T09:23:03;99795.94;;;14.11;83.15
70971;BME280;58632;51.718;19.446;2023-01-01T09:25:30;99794.27;;;14.21;83.19
70971;BME280;58632;51.718;19.446;2023-01-01T09:27:59;99793.63;;;14.25;81.31
70971;BME280;58632;51.718;19.446;2023-01-01T09:30:25;99792.09;;;14.31;81.46
70971;BME280;58632;51.718;19.446;2023-01-01T09:32:51;99791.79;;;14.37;81.07
70971;BME280;58632;51.718;19.446;2023-01-01T09:35:17;99785.31;;;14.39;80.63
70971;BME280;58632;51.718;19.446;2023-01-01T09:37:43;99787.92;;;14.43;80.71
70971;BME280;58632;51.718;19.446;2023-01-01T09:46:02;99784.29;;;14.47;79.37
70971;BME280;58632;51.718;19.446;2023-01-01T09:48:31;99789.55;;;14.49;79.26
70971;BME280;58632;51.718;19.446;2023-01-01T09:50:58;99788.73;;;14.53;79.63
70971;BME280;58632;51.718;19.446;2023-01-01T09:53:36;99790.77;;;14.55;79.84
70971;BME280;58632;51.718;19.446;2023-01-01T09:56:13;99786.99;;;14.59;79.17
70971;BME280;58632;51.718;19.446;2023-01-01T09:58:39;99783.52;;;14.63;78.92
70971;BME280;58632;51.718;19.446;2023-01-01T10:04:39;99785.26;;;14.68;78.60
70971;BME280;58632;51.718;19.446;2023-01-01T10:07:42;99785.36;;;14.74;78.81
70971;BME280;58632;51.718;19.446;2023-01-01T10:10:47;99788.65;;;14.82;77.81
70971;BME280;58632;51.718;19.446;2023-01-01T10:18:22;99789.50;;;15.07;76.66
70971;BME280;58632;51.718;19.446;2023-01-01T10:21:22;99788.58;;;15.14;76.34
70971;BME280;58632;51.718;19.446;2023-01-01T10:23:51;99785.90;;;15.22;75.41
70971;BME280;58632;51.718;19.446;2023-01-01T10:26:21;99791.41;;;15.28;75.86
70971;BME280;58632;51.718;19.446;2023-01-01T10:29:05;99791.55;;;15.33;75.59
70971;BME280;58632;51.718;19.446;2023-01-01T10:31:38;99793.65;;;15.36;74.18
70971;BME280;58632;51.718;19.446;2023-01-01T10:34:16;99799.77;;;15.37;74.32
70971;BME280;58632;51.718;19.446;2023-01-01T10:36:43;99795.79;;;15.39;74.65
70971;BME280;58632;51.718;19.446;2023-01-01T10:39:14;99794.63;;;15.39;74.13
70971;BME280;58632;51.718;19.446;2023-01-01T10:41:41;99796.88;;;15.41;73.49
70971;BME280;58632;51.718;19.446;2023-01-01T10:44:07;99793.62;;;15.43;73.35
70971;BME280;58632;51.718;19.446;2023-01-01T10:46:36;99790.55;;;15.47;71.79
70971;BME280;58632;51.718;19.446;2023-01-01T10:49:10;99787.01;;;15.53;71.80
70971;BME280;58632;51.718;19.446;2023-01-01T10:51:42;99785.46;;;15.57;71.42
70971;BME280;58632;51.718;19.446;2023-01-01T10:54:36;99779.64;;;15.61;71.82
70971;BME280;58632;51.718;19.446;2023-01-01T10:59:51;99773.95;;;15.67;71.05
70971;BME280;58632;51.718;19.446;2023-01-01T11:02:25;99772.88;;;15.68;70.62
70971;BME280;58632;51.718;19.446;2023-01-01T11:05:17;99765.45;;;15.67;70.96
70971;BME280;58632;51.718;19.446;2023-01-01T11:07:41;99761.16;;;15.69;70.80
70971;BME280;58632;51.718;19.446;2023-01-01T11:10:18;99759.48;;;15.68;70.01
70971;BME280;58632;51.718;19.446;2023-01-01T11:12:45;99756.56;;;15.68;69.11
70971;BME280;58632;51.718;19.446;2023-01-01T11:15:38;99757.95;;;15.67;69.67
70971;BME280;58632;51.718;19.446;2023-01-01T11:18:05;99760.29;;;15.62;69.23
70971;BME280;58632;51.718;19.446;2023-01-01T11:20:35;99763.48;;;15.57;68.91
70971;BME280;58632;51.718;19.446;2023-01-01T11:23:27;99764.96;;;15.54;68.54
70971;BME280;58632;51.718;19.446;2023-01-01T11:28:42;99765.20;;;15.48;68.59
70971;BME280;58632;51.718;19.446;2023-01-01T11:31:27;99759.98;;;15.44;68.43
70971;BME280;58632;51.718;19.446;2023-01-01T11:33:55;99756.70;;;15.42;68.68
70971;BME280;58632;51.718;19.446;2023-01-01T11:36:27;99756.54;;;15.42;68.94
70971;BME280;58632;51.718;19.446;2023-01-01T11:39:04;99753.48;;;15.39;68.46
70971;BME280;58632;51.718;19.446;2023-01-01T11:41:42;99749.05;;;15.39;68.15
70971;BME280;58632;51.718;19.446;2023-01-01T11:44:11;99747.25;;;15.40;68.26
70971;BME280;58632;51.718;19.446;2023-01-01T11:46:38;99741.90;;;15.43;68.43
70971;BME280;58632;51.718;19.446;2023-01-01T11:49:14;99736.05;;;15.49;68.36
70971;BME280;58632;51.718;19.446;2023-01-01T11:51:43;99731.25;;;15.56;68.39
70971;BME280;58632;51.718;19.446;2023-01-01T11:56:52;99734.85;;;15.67;67.17
70971;BME280;58632;51.718;19.446;2023-01-01T11:59:26;99733.11;;;15.73;67.05
70971;BME280;58632;51.718;19.446;2023-01-01T12:01:58;99734.85;;;15.79;67.49
70971;BME280;58632;51.718;19.446;2023-01-01T12:04:37;99733.05;;;15.84;67.07
70971;BME280;58632;51.718;19.446;2023-01-01T12:07:09;99734.66;;;15.88;67.58
70971;BME280;58632;51.718;19.446;2023-01-01T12:09:43;99730.72;;;15.92;67.38
70971;BME280;58632;51.718;19.446;2023-01-01T12:17:37;99729.03;;;16.01;66.42
70971;BME280;58632;51.718;19.446;2023-01-01T12:20:39;99731.14;;;16.06;66.31
70971;BME280;58632;51.718;19.446;2023-01-01T12:23:10;99729.27;;;16.11;66.48
70971;BME280;58632;51.718;19.446;2023-01-01T12:25:42;99728.30;;;16.14;65.91
70971;BME280;58632;51.718;19.446;2023-01-01T12:36:38;99751.25;;;16.20;66.14
70971;BME280;58632;51.718;19.446;2023-01-01T12:41:51;99758.64;;;16.12;65.83
70971;BME280;58632;51.718;19.446;2023-01-01T12:44:48;99757.27;;;16.07;66.16
70971;BME280;58632;51.718;19.446;2023-01-01T12:58:37;99765.06;;;15.86;67.33
70971;BME280;58632;51.718;19.446;2023-01-01T13:01:15;99760.08;;;15.79;67.40
70971;BME280;58632;51.718;19.446;2023-01-01T13:03:51;99759.76;;;15.72;67.43
70971;BME280;58632;51.718;19.446;2023-01-01T13:06:23;99762.77;;;15.64;67.76
70971;BME280;58632;51.718;19.446;2023-01-01T13:08:54;99760.38;;;15.56;67.74
70971;BME280;58632;51.718;19.446;2023-01-01T13:11:22;99755.31;;;15.50;68.48
70971;BME280;58632;51.718;19.446;2023-01-01T13:13:49;99756.19;;;15.40;68.56
70971;BME280;58632;51.718;19.446;2023-01-01T13:16:40;99755.61;;;15.33;68.78
70971;BME280;58632;51.718;19.446;2023-01-01T13:21:48;99750.08;;;15.18;69.60
70971;BME280;58632;51.718;19.446;2023-01-01T13:24:25;99750.23;;;15.12;69.42
70971;BME280;58632;51.718;19.446;2023-01-01T13:26:52;99748.02;;;15.06;69.86
70971;BME280;58632;51.718;19.446;2023-01-01T13:34:35;99759.99;;;14.89;70.08
70971;BME280;58632;51.718;19.446;2023-01-01T13:43:03;99782.17;;;14.70;71.19
70971;BME280;58632;51.718;19.446;2023-01-01T13:45:42;99788.98;;;14.60;71.60
70971;BME280;58632;51.718;19.446;2023-01-01T13:51:05;99812.49;;;14.45;72.69
70971;BME280;58632;51.718;19.446;2023-01-01T13:56:54;99814.48;;;14.26;73.90
70971;BME280;58632;51.718;19.446;2023-01-01T14:01:59;99826.23;;;14.11;74.62
70971;BME280;58632;51.718;19.446;2023-01-01T14:04:38;99829.61;;;14.03;75.08
70971;BME280;58632;51.718;19.446;2023-01-01T14:07:34;99839.38;;;13.94;75.69
70971;BME280;58632;51.718;19.446;2023-01-01T14:10:23;99850.01;;;13.85;76.27
70971;BME280;58632;51.718;19.446;2023-01-01T14:12:50;99863.66;;;13.77;76.69
70971;BME280;58632;51.718;19.446;2023-01-01T14:15:26;99861.79;;;13.66;77.36
70971;BME280;58632;51.718;19.446;2023-01-01T14:17:54;99864.54;;;13.57;78.01
70971;BME280;58632;51.718;19.446;2023-01-01T14:20:40;99875.80;;;13.48;78.55
70971;BME280;58632;51.718;19.446;2023-01-01T14:23:12;99878.67;;;13.38;79.02
70971;BME280;58632;51.718;19.446;2023-01-01T14:25:41;99874.45;;;13.28;80.19
70971;BME280;58632;51.718;19.446;2023-01-01T14:28:23;99875.47;;;13.24;80.61
70971;BME280;58632;51.718;19.446;2023-01-01T14:30:50;99876.37;;;13.19;80.51
70971;BME280;58632;51.718;19.446;2023-01-01T14:33:28;99872.16;;;13.14;81.56
70971;BME280;58632;51.718;19.446;2023-01-01T14:35:57;99877.55;;;13.08;81.94
70971;BME280;58632;51.718;19.446;2023-01-01T14:38:31;99885.04;;;13.02;82.56
70971;BME280;58632;51.718;19.446;2023-01-01T14:43:28;99884.11;;;12.92;83.87
70971;BME280;58632;51.718;19.446;2023-01-01T14:45:54;99890.82;;;12.87;83.88
70971;BME280;58632;51.718;19.446;2023-01-01T14:48:20;99885.85;;;12.80;84.45
70971;BME280;58632;51.718;19.446;2023-01-01T14:50:48;99886.63;;;12.74;85.02